Time;durP1;ratioP1;P1;durP2;ratioP2;P2;SDS_P1;SDS_P2;PMS_P1;PMS_P2;Temp;Humidity;BMP_temperature;BMP_pressure;BME280_temperature;BME280_humidity;BME280_pressure;Samples;Min_cycle;Max_cycle;Signal;HPM_P1;HPM_P2
2022/07/01 00:00:20;;;;;;;1.20;0.40;;;;;;;20.46;55.24;100035.56;10346039;28;20531;-72
2022/07/01 00:05:21;;;;;;;0.82;0.40;;;;;;;20.38;55.84;100044.63;10355297;28;20056;-71
2022/07/01 00:10:23;;;;;;;0.40;0.10;;;;;;;20.22;55.77;100044.88;10352094;28;20440;-73
2022/07/01 00:15:24;;;;;;;0.30;0.10;;;;;;;20.20;55.99;100060.47;10348722;28;20056;-72
2022/07/01 00:20:26;;;;;;;0.45;0.20;;;;;;;20.34;57.02;100070.38;10346417;28;20078;-73
2022/07/01 00:25:27;;;;;;;0.20;0.10;;;;;;;20.33;56.13;100087.63;10350346;28;20107;-71
2022/07/01 00:30:29;;;;;;;0.40;0.20;;;;;;;20.45;56.00;100086.09;10354357;28;20190;-72
2022/07/01 00:35:31;;;;;;;2.92;0.40;;;;;;;20.46;55.99;100079.66;10353219;28;20735;-71
2022/07/01 00:40:32;;;;;;;0.50;0.20;;;;;;;20.47;54.92;100083.19;10360249;28;20068;-72
2022/07/01 00:45:34;;;;;;;2.75;0.75;;;;;;;20.20;57.11;100080.19;10345463;28;20053;-72
2022/07/01 00:50:35;;;;;;;1.45;0.30;;;;;;;20.30;57.33;100102.34;10345051;28;20074;-72
2022/07/01 00:55:37;;;;;;;2.05;0.40;;;;;;;20.29;58.61;100103.38;10341831;28;20064;-70
2022/07/01 01:00:38;;;;;;;1.05;0.35;;;;;;;20.10;59.29;100115.66;10342029;28;20155;-72
2022/07/01 01:05:40;;;;;;;1.02;0.50;;;;;;;19.89;60.66;100115.56;10338885;28;20624;-72
2022/07/01 01:10:42;;;;;;;1.30;0.50;;;;;;;20.05;59.69;100119.94;10343086;28;20557;-72
2022/07/01 01:15:43;;;;;;;0.63;0.50;;;;;;;20.08;60.89;100117.69;10345998;28;20053;-71
2022/07/01 01:20:45;;;;;;;0.68;0.30;;;;;;;20.22;60.99;100121.41;10346357;28;20056;-71
2022/07/01 01:25:49;;;;;;;1.65;0.30;;;;;;;20.25;61.95;100125.56;10344983;28;20050;-71
2022/07/01 01:30:51;;;;;;;0.75;0.20;;;;;;;20.27;60.60;100128.94;10339317;28;20066;-71
2022/07/01 01:35:52;;;;;;;2.50;0.52;;;;;;;20.18;60.37;100127.38;10342486;28;20142;-71
2022/07/01 01:40:55;;;;;;;1.00;0.30;;;;;;;20.04;61.23;100129.91;10336557;28;20038;-72
2022/07/01 01:45:56;;;;;;;0.70;0.30;;;;;;;20.12;61.08;100143.31;10340871;28;20058;-71
2022/07/01 01:50:58;;;;;;;1.10;0.30;;;;;;;20.03;62.29;100166.06;10337701;28;20370;-71
2022/07/01 01:55:59;;;;;;;0.93;0.50;;;;;;;20.04;64.38;100165.03;10337796;28;20848;-72
2022/07/01 02:01:01;;;;;;;0.73;0.68;;;;;;;20.02;62.52;100163.53;10335057;28;20817;-71
2022/07/01 02:06:04;;;;;;;1.00;0.60;;;;;;;19.96;63.26;100162.41;10339832;28;20058;-71
2022/07/01 02:11:06;;;;;;;0.80;0.55;;;;;;;19.94;63.25;100168.00;10336403;28;20145;-72
2022/07/01 02:16:07;;;;;;;0.82;0.60;;;;;;;19.96;63.14;100165.13;10344208;28;20058;-71
2022/07/01 02:21:09;;;;;;;1.38;0.60;;;;;;;19.80;64.15;100166.13;10348811;28;20091;-73
2022/07/01 02:26:12;;;;;;;0.60;0.43;;;;;;;19.66;64.99;100154.28;10353311;28;20052;-72
2022/07/01 02:31:14;;;;;;;1.60;0.80;;;;;;;19.48;65.04;100164.59;10356253;28;20055;-71
2022/07/01 02:36:15;;;;;;;1.48;0.80;;;;;;;19.61;65.11;100151.31;10352766;28;20120;-72
2022/07/01 02:41:16;;;;;;;0.75;0.60;;;;;;;19.58;65.53;100157.09;10346809;28;20060;-71
2022/07/01 02:46:18;;;;;;;1.33;0.60;;;;;;;19.58;64.13;100148.97;10349601;28;20510;-72
2022/07/01 02:51:19;;;;;;;1.17;0.52;;;;;;;19.56;64.80;100145.59;10344522;28;20468;-71
2022/07/01 02:56:21;;;;;;;0.82;0.70;;;;;;;19.63;65.09;100151.13;10347760;28;20053;-71
2022/07/01 03:01:22;;;;;;;1.00;0.68;;;;;;;19.31;66.93;100145.03;10352451;28;20136;-72
2022/07/01 03:06:24;;;;;;;1.40;0.52;;;;;;;19.36;66.56;100138.03;10342993;28;20057;-72
2022/07/01 03:11:25;;;;;;;1.40;0.70;;;;;;;19.46;66.80;100136.97;10344408;28;20053;-72
2022/07/01 03:16:27;;;;;;;0.93;0.75;;;;;;;19.46;66.82;100131.56;10346615;28;20069;-72
2022/07/01 03:21:28;;;;;;;1.95;0.70;;;;;;;19.41;66.70;100116.75;10346646;28;20091;-72
2022/07/01 03:26:30;;;;;;;0.85;0.60;;;;;;;19.51;66.69;100113.78;10339697;28;20137;-72
2022/07/01 03:31:38;;;;;;;1.00;0.63;;;;;;;19.52;65.45;100112.75;10350946;28;20068;-73
2022/07/01 03:36:39;;;;;;;1.10;0.80;;;;;;;19.51;66.87;100107.53;10348499;28;20575;-72
2022/07/01 03:41:41;;;;;;;0.75;0.60;;;;;;;19.48;65.62;100102.53;10365267;28;20068;-72
2022/07/01 03:46:42;;;;;;;1.17;0.63;;;;;;;19.37;65.62;100095.72;10358117;28;20046;-71
2022/07/01 03:51:44;;;;;;;0.80;0.40;;;;;;;19.43;65.51;100103.06;10348625;28;20161;-71
2022/07/01 03:56:45;;;;;;;1.30;0.60;;;;;;;19.02;67.91;100114.25;10361090;28;20041;-72
2022/07/01 04:01:46;;;;;;;1.58;0.40;;;;;;;19.20;65.88;100106.69;10364696;28;20076;-72
2022/07/01 04:06:48;;;;;;;1.70;0.50;;;;;;;19.37;65.98;100123.53;10355180;28;20049;-72
2022/07/01 04:11:50;;;;;;;1.05;0.32;;;;;;;19.45;65.63;100151.47;10349174;28;20067;-72
2022/07/01 04:16:52;;;;;;;0.93;0.40;;;;;;;19.34;66.24;100167.09;10361172;28;20178;-71
2022/07/01 04:27:14;;;;;;;0.73;0.30;;;;;;;19.28;66.32;100177.78;10381514;28;20148;-72
2022/07/01 04:32:16;;;;;;;0.70;0.50;;;;;;;19.37;65.26;100166.72;10350525;28;20868;-72
2022/07/01 04:37:17;;;;;;;1.95;0.47;;;;;;;19.48;64.55;100168.13;10346994;28;20053;-71
2022/07/01 04:42:20;;;;;;;1.08;0.32;;;;;;;19.43;64.45;100181.34;10343051;28;20421;-71
2022/07/01 04:47:23;;;;;;;0.60;0.20;;;;;;;19.52;65.71;100191.03;10346306;28;20070;-72
2022/07/01 04:52:25;;;;;;;0.50;0.30;;;;;;;19.52;63.47;100214.50;10344716;28;20137;-72
2022/07/01 04:57:26;;;;;;;0.70;0.40;;;;;;;19.45;63.54;100237.84;10346975;28;20046;-72
2022/07/01 05:02:28;;;;;;;0.32;0.20;;;;;;;19.38;62.45;100233.19;10319168;28;20049;-70
2022/07/01 05:07:29;;;;;;;0.57;0.40;;;;;;;19.21;64.91;100239.72;10340045;28;20060;-70
2022/07/01 05:12:30;;;;;;;2.15;0.30;;;;;;;19.03;64.11;100238.16;10345426;28;20057;-69
2022/07/01 05:23:03;;;;;;;1.55;0.43;;;;;;;18.94;63.00;100247.31;10287714;28;20697;-70
2022/07/01 05:28:05;;;;;;;1.67;0.40;;;;;;;19.02;63.75;100274.25;10342045;28;20060;-69
2022/07/01 05:33:06;;;;;;;1.58;0.55;;;;;;;19.08;64.56;100262.75;10342718;28;20512;-69
2022/07/01 05:38:08;;;;;;;1.25;0.50;;;;;;;18.79;63.05;100270.66;10344480;28;20057;-70
2022/07/01 05:43:09;;;;;;;0.50;0.45;;;;;;;18.78;62.41;100285.13;10344934;28;20058;-71
2022/07/01 05:48:10;;;;;;;0.50;0.20;;;;;;;18.80;65.61;100273.16;10346070;28;20049;-70
2022/07/01 05:53:12;;;;;;;0.88;0.30;;;;;;;19.13;63.57;100291.06;10338495;28;20075;-71
2022/07/01 05:58:14;;;;;;;0.60;0.30;;;;;;;18.99;62.39;100277.31;10347985;28;20053;-72
2022/07/01 06:03:15;;;;;;;0.70;0.25;;;;;;;19.33;59.38;100284.16;10348679;28;20954;-72
2022/07/01 06:08:17;;;;;;;0.40;0.20;;;;;;;19.14;60.38;100284.63;10356971;28;20059;-70
2022/07/01 06:13:18;;;;;;;1.02;0.25;;;;;;;19.25;61.09;100265.34;10347159;28;20529;-72
2022/07/01 06:18:20;;;;;;;1.20;0.20;;;;;;;19.23;59.25;100294.34;10350996;28;20053;-72
2022/07/01 06:23:22;;;;;;;1.48;0.20;;;;;;;19.45;57.53;100310.72;10341074;28;20045;-67
2022/07/01 06:28:29;;;;;;;0.40;0.10;;;;;;;19.22;58.21;100316.97;10345108;28;21651;-69
2022/07/01 06:33:30;;;;;;;1.55;0.20;;;;;;;19.03;57.63;100305.59;10350121;28;20045;-70
2022/07/01 06:38:32;;;;;;;0.30;0.10;;;;;;;18.84;58.51;100311.38;10347153;28;20060;-69
2022/07/01 06:43:34;;;;;;;1.23;0.85;;;;;;;19.26;57.42;100304.81;10340379;28;20745;-69
2022/07/01 06:48:36;;;;;;;1.17;0.63;;;;;;;19.31;58.63;100290.75;10350695;28;20046;-68
2022/07/01 06:53:37;;;;;;;1.08;0.30;;;;;;;19.07;56.12;100295.31;10344087;28;20840;-69
2022/07/01 06:58:39;;;;;;;1.15;0.30;;;;;;;19.04;58.31;100279.47;10347213;28;20059;-70
2022/07/01 07:03:41;;;;;;;0.70;0.28;;;;;;;18.90;57.09;100290.00;10329114;28;20056;-69
2022/07/01 07:08:42;;;;;;;3.28;0.40;;;;;;;18.77;57.91;100305.03;10351174;28;20060;-68
2022/07/01 07:13:44;;;;;;;0.98;0.57;;;;;;;18.72;56.58;100317.19;10335093;28;20140;-70
2022/07/01 07:18:45;;;;;;;2.53;0.30;;;;;;;18.62;57.58;100319.25;10356962;28;20603;-70
2022/07/01 07:23:46;;;;;;;1.83;0.20;;;;;;;18.62;59.24;100335.44;10344784;28;20100;-70
2022/07/01 07:28:48;;;;;;;1.38;0.50;;;;;;;18.72;59.06;100335.22;10338351;28;20523;-70
2022/07/01 07:33:49;;;;;;;1.65;0.40;;;;;;;18.83;59.60;100345.63;10344601;28;20172;-70
2022/07/01 07:38:51;;;;;;;2.35;0.70;;;;;;;18.87;62.71;100363.16;10351521;28;20063;-69
2022/07/01 07:43:52;;;;;;;0.55;0.25;;;;;;;18.80;60.55;100380.19;10346900;28;20175;-71
2022/07/01 07:48:53;;;;;;;1.25;0.45;;;;;;;18.76;61.88;100395.03;10352806;28;20041;-70
2022/07/01 07:53:55;;;;;;;1.80;0.90;;;;;;;18.66;64.71;100412.25;10356421;28;20071;-70
2022/07/01 07:58:57;;;;;;;1.30;0.40;;;;;;;18.69;65.96;100406.50;10345308;28;20087;-71
2022/07/01 08:03:58;;;;;;;1.27;0.57;;;;;;;18.77;69.32;100407.50;10348366;28;20918;-71
2022/07/01 08:08:59;;;;;;;2.45;0.70;;;;;;;18.82;67.26;100388.94;10345035;28;20056;-71
2022/07/01 08:14:01;;;;;;;2.88;0.70;;;;;;;18.77;68.75;100388.63;10348253;28;20054;-71
2022/07/01 08:19:03;;;;;;;2.70;0.73;;;;;;;18.87;69.68;100391.97;10348100;28;20059;-71
2022/07/01 08:24:04;;;;;;;3.00;0.75;;;;;;;18.81;70.16;100390.81;10337826;28;20059;-70
2022/07/01 08:29:06;;;;;;;1.65;0.70;;;;;;;18.87;70.01;100384.75;10351432;28;20503;-71
2022/07/01 08:34:09;;;;;;;1.83;0.50;;;;;;;18.92;68.41;100372.59;10347905;28;20059;-71
2022/07/01 08:39:10;;;;;;;3.07;0.80;;;;;;;19.05;66.51;100367.44;10349705;28;20042;-71
2022/07/01 08:44:11;;;;;;;1.65;0.52;;;;;;;18.95;68.42;100375.78;10342553;28;20104;-71
2022/07/01 08:49:13;;;;;;;3.92;0.70;;;;;;;18.98;70.20;100356.53;10345415;28;20139;-69
2022/07/01 08:54:15;;;;;;;1.17;0.50;;;;;;;18.88;70.90;100372.09;10336798;28;20186;-71
2022/07/01 08:59:24;;;;;;;2.97;0.95;;;;;;;19.14;70.34;100358.31;10356711;28;20045;-70
2022/07/01 09:04:27;;;;;;;1.10;0.68;;;;;;;19.25;69.55;100360.59;10342665;28;20049;-70
2022/07/01 09:09:28;;;;;;;1.90;1.13;;;;;;;19.34;67.84;100372.19;10331177;28;20076;-71
2022/07/01 09:14:33;;;;;;;1.92;0.50;;;;;;;19.32;66.85;100401.22;10337228;28;20053;-71
2022/07/01 09:19:37;;;;;;;2.15;0.82;;;;;;;19.21;64.89;100429.44;10353654;28;20071;-70
2022/07/01 09:24:45;;;;;;;1.77;0.60;;;;;;;19.03;64.28;100447.72;10351380;28;20061;-72
2022/07/01 09:29:50;;;;;;;2.55;0.68;;;;;;;19.06;67.35;100444.69;10347621;28;20406;-72
2022/07/01 09:34:53;;;;;;;2.22;0.80;;;;;;;19.19;66.48;100434.16;10332244;28;20563;-70
2022/07/01 09:39:58;;;;;;;1.70;0.75;;;;;;;19.14;65.37;100438.41;10346825;28;20075;-71
2022/07/01 09:45:06;;;;;;;2.33;0.68;;;;;;;18.90;64.46;100451.00;10345197;28;20045;-71
2022/07/01 09:50:09;;;;;;;1.52;0.57;;;;;;;18.94;65.05;100424.50;10342877;28;20487;-71
2022/07/01 09:55:12;;;;;;;2.13;0.97;;;;;;;18.99;63.32;100428.38;10342080;28;20045;-72
2022/07/01 10:00:14;;;;;;;3.25;0.63;;;;;;;19.18;64.29;100437.03;10342858;28;20146;-72
2022/07/01 10:05:23;;;;;;;1.33;1.00;;;;;;;19.17;62.05;100424.56;10332185;28;20754;-71
2022/07/01 10:10:44;;;;;;;2.42;0.90;;;;;;;19.72;60.43;100445.19;10332429;28;20049;-71
2022/07/01 10:15:48;;;;;;;1.67;0.70;;;;;;;20.45;61.07;100434.00;10337748;28;20049;-72
2022/07/01 10:20:50;;;;;;;2.47;0.52;;;;;;;21.08;59.24;100450.75;10332572;28;20833;-70
2022/07/01 10:25:53;;;;;;;2.57;0.70;;;;;;;21.50;56.56;100460.06;10338642;28;20756;-70
2022/07/01 10:31:04;;;;;;;1.35;0.60;;;;;;;21.36;53.46;100475.28;10342118;28;20052;-71
2022/07/01 10:36:25;;;;;;;1.73;0.60;;;;;;;21.14;54.76;100477.06;10316154;28;20049;-70
2022/07/01 10:41:28;;;;;;;2.33;0.70;;;;;;;21.11;56.40;100469.34;10314163;28;20137;-72
2022/07/01 10:46:45;;;;;;;1.98;0.50;;;;;;;21.32;51.32;100478.56;10344016;28;20052;-70
2022/07/01 10:51:51;;;;;;;1.52;0.70;;;;;;;21.29;54.26;100478.94;10345608;28;20056;-71
2022/07/01 10:56:53;;;;;;;3.10;0.80;;;;;;;21.29;51.58;100468.94;10355327;28;20057;-71
2022/07/01 11:01:54;;;;;;;1.70;1.00;;;;;;;21.30;51.64;100469.78;10353847;28;20051;-71
2022/07/01 11:06:56;;;;;;;1.88;0.80;;;;;;;21.76;49.05;100468.69;10341805;28;20053;-70
2022/07/01 11:11:57;;;;;;;1.35;0.50;;;;;;;22.22;50.25;100468.31;10351771;28;20053;-70
2022/07/01 11:16:59;;;;;;;3.63;0.70;;;;;;;22.21;49.12;100475.59;10350797;28;20045;-71
2022/07/01 11:22:02;;;;;;;2.45;0.50;;;;;;;22.30;48.27;100479.00;10353513;28;20080;-70
2022/07/01 11:27:07;;;;;;;2.78;0.60;;;;;;;22.35;48.14;100465.75;10343860;28;20056;-71
2022/07/01 11:32:08;;;;;;;2.17;0.50;;;;;;;22.21;47.03;100467.47;10343298;28;20059;-71
2022/07/01 11:42:30;;;;;;;1.42;0.88;;;;;;;22.05;47.44;100460.44;10346661;28;20045;-70
2022/07/01 11:47:32;;;;;;;2.08;0.77;;;;;;;21.70;49.06;100452.16;10348648;28;20053;-70
2022/07/01 11:52:33;;;;;;;1.75;0.68;;;;;;;21.59;50.40;100446.41;10342696;28;20057;-68
2022/07/01 11:57:35;;;;;;;1.00;0.50;;;;;;;21.85;50.93;100443.16;10342208;28;20564;-69
2022/07/01 12:02:36;;;;;;;5.68;0.70;;;;;;;22.14;49.86;100442.16;10344313;28;20053;-70
2022/07/01 12:07:38;;;;;;;4.22;1.00;;;;;;;22.27;47.56;100443.31;10342556;28;20735;-69
2022/07/01 12:12:39;;;;;;;2.20;0.85;;;;;;;22.42;48.08;100431.38;10324442;28;20084;-70
2022/07/01 12:17:41;;;;;;;3.35;0.73;;;;;;;22.44;47.69;100431.16;10338768;28;20994;-69
2022/07/01 12:22:42;;;;;;;1.77;0.43;;;;;;;22.22;47.96;100441.19;10342660;28;20065;-69
2022/07/01 12:27:44;;;;;;;1.30;0.70;;;;;;;22.40;47.17;100441.59;10345293;28;20682;-69
2022/07/01 12:32:45;;;;;;;3.05;0.85;;;;;;;22.72;46.89;100427.63;10341801;28;20052;-70
2022/07/01 12:37:47;;;;;;;1.95;0.65;;;;;;;22.97;47.29;100429.84;10347386;28;20049;-71
2022/07/01 12:42:48;;;;;;;1.40;0.65;;;;;;;22.72;45.84;100430.34;10340488;28;20083;-70
2022/07/01 12:47:52;;;;;;;2.30;0.50;;;;;;;22.80;45.92;100432.03;10331925;28;20057;-70
2022/07/01 12:53:02;;;;;;;2.00;0.77;;;;;;;22.60;47.31;100432.75;10344328;28;20159;-70
2022/07/01 12:58:08;;;;;;;1.88;0.77;;;;;;;22.69;46.77;100431.56;10341610;28;20664;-69
2022/07/01 13:03:10;;;;;;;3.53;0.80;;;;;;;22.58;47.29;100427.53;10346280;28;20520;-70
2022/07/01 13:08:12;;;;;;;2.33;0.60;;;;;;;22.38;47.30;100423.81;10353584;28;20052;-70
2022/07/01 13:13:16;;;;;;;1.90;0.50;;;;;;;22.21;47.34;100429.50;10345225;28;20235;-71
2022/07/01 13:18:18;;;;;;;2.80;0.70;;;;;;;22.02;48.64;100430.16;10357449;28;20148;-68
2022/07/01 13:23:19;;;;;;;2.25;0.73;;;;;;;21.84;49.26;100423.34;10360022;28;20140;-69
2022/07/01 13:28:20;;;;;;;1.70;0.80;;;;;;;21.56;49.42;100425.13;10351439;28;20041;-70
2022/07/01 13:33:22;;;;;;;1.83;0.70;;;;;;;21.28;48.25;100442.06;10345743;28;20103;-69
2022/07/01 13:38:23;;;;;;;1.88;0.73;;;;;;;21.43;48.82;100426.63;10342708;28;20057;-70
2022/07/01 13:43:24;;;;;;;2.53;0.98;;;;;;;21.75;47.63;100442.63;10332001;28;20064;-71
2022/07/01 13:48:26;;;;;;;2.30;0.55;;;;;;;21.97;47.97;100438.88;10338958;28;20528;-70
2022/07/01 13:53:27;;;;;;;3.70;0.60;;;;;;;22.19;46.35;100447.84;10325918;28;20050;-70
2022/07/01 13:58:29;;;;;;;2.75;1.00;;;;;;;22.14;47.57;100450.28;10342349;28;20050;-69
2022/07/01 14:03:31;;;;;;;2.08;0.50;;;;;;;21.98;46.46;100447.84;10338004;28;20047;-70
2022/07/01 14:08:32;;;;;;;1.52;0.60;;;;;;;22.02;46.00;100446.44;10339057;28;20582;-70
2022/07/01 14:13:37;;;;;;;3.33;1.33;;;;;;;22.16;46.62;100448.25;10321181;28;20142;-70
2022/07/01 14:18:38;;;;;;;2.08;0.80;;;;;;;22.52;45.93;100447.31;10348492;28;20063;-71
2022/07/01 14:23:46;;;;;;;1.20;0.73;;;;;;;22.47;45.17;100452.47;10347509;28;20069;-71
2022/07/01 14:28:53;;;;;;;1.75;0.85;;;;;;;22.27;44.31;100462.31;10350951;28;20571;-72
2022/07/01 14:33:54;;;;;;;2.80;1.05;;;;;;;22.37;45.11;100454.72;10347750;28;20057;-70
2022/07/01 14:38:55;;;;;;;1.58;0.60;;;;;;;22.30;44.45;100448.34;10357673;28;20655;-71
2022/07/01 14:43:57;;;;;;;2.67;0.40;;;;;;;22.35;44.55;100454.03;10351832;28;20055;-72
2022/07/01 14:48:58;;;;;;;0.60;0.30;;;;;;;22.16;45.68;100464.50;10351449;28;20507;-69
2022/07/01 14:53:59;;;;;;;1.20;0.40;;;;;;;21.75;45.98;100462.41;10343146;28;21126;-72
2022/07/01 14:59:01;;;;;;;1.65;0.30;;;;;;;21.47;46.60;100446.88;10348359;28;20404;-71
2022/07/01 15:04:08;;;;;;;1.38;0.40;;;;;;;21.46;47.90;100449.78;10344353;28;20516;-71
2022/07/01 15:09:11;;;;;;;0.80;0.50;;;;;;;21.42;47.21;100452.00;10344361;28;20062;-70
2022/07/01 15:14:12;;;;;;;1.30;0.47;;;;;;;21.34;46.11;100446.72;10343729;28;20061;-71
2022/07/01 15:19:14;;;;;;;0.30;0.30;;;;;;;21.35;45.76;100445.69;10348656;28;20063;-72
2022/07/01 15:24:15;;;;;;;2.50;0.30;;;;;;;21.52;45.30;100447.16;10354798;28;20053;-71
2022/07/01 15:29:17;;;;;;;2.58;0.32;;;;;;;21.56;44.17;100452.19;10347574;28;20063;-71
2022/07/01 15:34:18;;;;;;;1.33;0.52;;;;;;;21.69;44.60;100461.34;10349043;28;20045;-71
2022/07/01 15:39:20;;;;;;;1.60;0.50;;;;;;;21.73;44.96;100466.38;10350174;28;20793;-71
2022/07/01 15:44:21;;;;;;;0.90;0.40;;;;;;;21.60;45.26;100454.31;10352347;28;20049;-71
2022/07/01 15:49:23;;;;;;;0.77;0.40;;;;;;;21.66;44.45;100453.59;10331342;28;20758;-70
2022/07/01 15:54:24;;;;;;;1.75;0.35;;;;;;;21.67;45.57;100459.84;10340580;28;20067;-71
2022/07/01 15:59:25;;;;;;;1.23;0.47;;;;;;;21.68;45.22;100456.09;10354882;28;20045;-72
2022/07/01 16:04:32;;;;;;;1.25;0.70;;;;;;;21.62;45.10;100451.44;10347883;28;20233;-71
2022/07/01 16:09:38;;;;;;;0.57;0.30;;;;;;;21.51;45.24;100456.34;10348457;28;20458;-73
2022/07/01 16:14:40;;;;;;;1.38;0.60;;;;;;;21.56;44.90;100458.47;10347371;28;20048;-72
2022/07/01 16:19:44;;;;;;;0.93;0.40;;;;;;;21.62;44.46;100457.69;10347356;28;20056;-72
2022/07/01 16:24:48;;;;;;;2.42;0.68;;;;;;;21.66;44.60;100458.16;10350576;28;20547;-72
2022/07/01 16:29:50;;;;;;;1.58;0.65;;;;;;;21.50;44.60;100470.91;10349132;28;20833;-71
2022/07/01 16:34:51;;;;;;;1.45;0.50;;;;;;;21.33;44.96;100472.97;10353061;28;20232;-72
2022/07/01 16:39:54;;;;;;;2.38;0.60;;;;;;;21.32;45.62;100490.22;10350535;28;20563;-72
2022/07/01 16:45:06;;;;;;;2.37;0.50;;;;;;;21.32;46.38;100483.97;10350585;28;20049;-71
2022/07/01 16:50:11;;;;;;;1.17;0.50;;;;;;;21.26;48.38;100495.53;10349593;28;20056;-71
2022/07/01 16:55:15;;;;;;;1.25;0.57;;;;;;;21.33;49.05;100501.88;10350210;28;20070;-72
2022/07/01 17:00:21;;;;;;;2.03;0.40;;;;;;;21.43;48.32;100491.59;10347810;28;20059;-70
2022/07/01 17:05:23;;;;;;;0.63;0.40;;;;;;;21.51;48.19;100483.41;10344807;28;20049;-73
2022/07/01 17:10:26;;;;;;;0.73;0.25;;;;;;;21.65;47.39;100489.81;10351094;28;20143;-71
2022/07/01 17:15:29;;;;;;;1.25;0.35;;;;;;;21.61;47.92;100495.81;10349715;28;20045;-71
2022/07/01 17:20:32;;;;;;;4.47;0.32;;;;;;;21.55;47.47;100489.28;10346182;28;20138;-71
2022/07/01 17:25:36;;;;;;;1.60;0.30;;;;;;;21.56;48.01;100487.41;10327424;28;20607;-72
2022/07/01 17:31:00;;;;;;;2.10;0.52;;;;;;;21.53;47.73;100494.88;10339457;28;20276;-71
2022/07/01 17:36:11;;;;;;;1.98;0.93;;;;;;;21.53;47.90;100494.88;10329457;28;20045;-72
2022/07/01 17:41:16;;;;;;;0.73;0.57;;;;;;;21.50;47.58;100497.16;10336593;28;20073;-70
2022/07/01 17:46:18;;;;;;;1.02;0.60;;;;;;;21.45;47.51;100494.97;10339103;28;20064;-68
2022/07/01 17:51:21;;;;;;;1.67;0.60;;;;;;;21.48;47.61;100505.44;10352981;28;20053;-69
2022/07/01 17:56:24;;;;;;;2.37;1.40;;;;;;;21.55;47.86;100494.69;10345022;28;20058;-68
2022/07/01 18:01:27;;;;;;;2.33;1.00;;;;;;;21.61;46.87;100503.94;10340063;28;20057;-68
2022/07/01 18:06:29;;;;;;;1.88;1.30;;;;;;;21.67;47.27;100508.59;10344962;28;20050;-68
2022/07/01 18:11:38;;;;;;;2.13;1.27;;;;;;;21.65;46.86;100518.78;10325223;28;20203;-70
2022/07/01 18:17:02;;;;;;;2.42;1.30;;;;;;;21.61;47.54;100517.47;10329458;28;20120;-69
2022/07/01 18:22:24;;;;;;;2.08;0.82;;;;;;;21.51;47.85;100524.03;10329240;28;20050;-69
2022/07/01 18:27:35;;;;;;;2.65;1.13;;;;;;;21.42;48.70;100527.00;10341898;28;20045;-70
2022/07/01 18:32:40;;;;;;;2.58;0.50;;;;;;;21.36;48.74;100534.00;10337902;28;20068;-70
2022/07/01 18:37:50;;;;;;;2.35;0.63;;;;;;;21.33;49.24;100535.22;10326044;28;20049;-68
2022/07/01 18:42:57;;;;;;;2.10;0.68;;;;;;;21.25;49.37;100534.47;10337908;28;20049;-69
2022/07/01 18:48:01;;;;;;;2.20;1.23;;;;;;;21.15;49.69;100532.91;10343930;28;21042;-70
2022/07/01 18:53:03;;;;;;;1.70;1.20;;;;;;;21.05;49.89;100536.88;10335909;28;20752;-69
2022/07/01 18:58:04;;;;;;;2.75;2.10;;;;;;;20.95;50.81;100531.75;10327055;28;20081;-70
2022/07/01 19:03:06;;;;;;;4.63;3.17;;;;;;;20.90;51.25;100555.81;10325747;28;20045;-69
2022/07/01 19:08:07;;;;;;;6.65;5.25;;;;;;;20.83;52.57;100556.53;10337266;28;20597;-68
2022/07/01 19:13:10;;;;;;;5.32;4.72;;;;;;;20.81;52.52;100568.59;10346142;28;20045;-69
2022/07/01 19:18:17;;;;;;;3.92;3.00;;;;;;;20.75;53.25;100567.44;10345811;28;20052;-70
2022/07/01 19:23:18;;;;;;;1.98;1.77;;;;;;;20.70;54.06;100577.94;10347685;28;20050;-70
2022/07/01 19:28:20;;;;;;;3.22;2.33;;;;;;;20.65;54.81;100574.94;10354468;28;20045;-69
2022/07/01 19:33:22;;;;;;;2.60;1.63;;;;;;;20.62;55.59;100584.25;10346202;28;20868;-69
2022/07/01 19:38:23;;;;;;;1.83;1.02;;;;;;;20.58;56.15;100590.19;10337246;28;20142;-68
2022/07/01 19:43:24;;;;;;;2.55;1.40;;;;;;;20.54;56.39;100608.66;10354606;28;20057;-70
2022/07/01 19:48:27;;;;;;;1.90;1.45;;;;;;;20.53;57.06;100614.25;10348981;28;20049;-71
2022/07/01 19:53:29;;;;;;;3.35;1.58;;;;;;;20.51;57.19;100616.28;10341415;28;20896;-70
2022/07/01 19:58:32;;;;;;;2.53;1.55;;;;;;;20.51;57.39;100621.69;10345074;28;20058;-69
2022/07/01 20:03:34;;;;;;;4.25;1.52;;;;;;;20.51;57.48;100627.09;10339398;28;20053;-69
2022/07/01 20:08:35;;;;;;;4.18;1.73;;;;;;;20.47;57.20;100632.84;10354273;28;20933;-70
2022/07/01 20:13:36;;;;;;;1.60;1.05;;;;;;;20.45;57.26;100645.72;10347528;28;20055;-70
2022/07/01 20:18:38;;;;;;;2.85;1.48;;;;;;;20.41;57.65;100640.84;10339107;28;20373;-69
2022/07/01 20:23:40;;;;;;;2.88;1.40;;;;;;;20.36;57.55;100654.91;10344747;28;20176;-69
2022/07/01 20:28:41;;;;;;;1.48;0.70;;;;;;;20.32;58.08;100661.69;10337093;28;20053;-68
2022/07/01 20:33:42;;;;;;;2.90;1.10;;;;;;;20.22;58.05;100656.50;10342185;28;20053;-69
2022/07/01 20:38:49;;;;;;;3.63;1.63;;;;;;;20.18;58.81;100674.09;10342955;28;20491;-68
2022/07/01 20:43:50;;;;;;;3.95;1.60;;;;;;;20.09;59.64;100669.75;10340384;28;20220;-70
2022/07/01 20:48:51;;;;;;;1.67;1.38;;;;;;;20.06;59.42;100679.03;10347190;28;20051;-69
2022/07/01 20:53:53;;;;;;;4.20;1.67;;;;;;;20.07;59.29;100679.88;10345839;28;20072;-68
2022/07/01 20:58:54;;;;;;;2.75;1.40;;;;;;;20.00;59.80;100695.97;10347373;28;20045;-69
2022/07/01 21:04:15;;;;;;;3.10;1.52;;;;;;;19.95;59.43;100692.91;10335489;28;20060;-70
2022/07/01 21:09:17;;;;;;;3.38;1.33;;;;;;;19.91;59.49;100691.59;10346670;28;20054;-69
2022/07/01 21:14:18;;;;;;;3.45;1.40;;;;;;;19.82;59.59;100698.88;10348499;28;20059;-70
2022/07/01 21:19:20;;;;;;;1.85;1.20;;;;;;;19.78;60.01;100701.06;10343669;28;20161;-68
2022/07/01 21:24:21;;;;;;;2.63;1.45;;;;;;;19.72;60.07;100709.84;10346022;28;20050;-69
2022/07/01 21:29:23;;;;;;;4.35;1.50;;;;;;;19.68;60.21;100711.22;10340920;28;20050;-70
2022/07/01 21:34:27;;;;;;;2.45;1.65;;;;;;;19.61;60.56;100712.91;10327450;28;20045;-68
2022/07/01 21:39:28;;;;;;;;;;;;;;;19.54;61.03;100720.00;10342366;28;20053;-70
2022/07/01 21:44:33;;;;;;;1.92;1.30;;;;;;;19.51;61.17;100723.06;10346639;28;20772;-70
2022/07/01 21:49:34;;;;;;;3.80;1.58;;;;;;;19.47;61.21;100722.56;10355075;28;20059;-69
2022/07/01 21:54:38;;;;;;;2.00;1.38;;;;;;;19.41;62.03;100721.38;10343581;28;20058;-69
2022/07/01 21:59:42;;;;;;;2.10;1.50;;;;;;;19.36;62.11;100718.31;10329147;28;20081;-70
2022/07/01 22:04:44;;;;;;;;;;;;;;;19.34;62.48;100717.66;10343207;28;20064;-70
2022/07/01 22:09:45;;;;;;;3.17;1.63;;;;;;;19.30;63.12;100721.72;10345550;28;20376;-71
2022/07/01 22:14:52;;;;;;;3.55;1.95;;;;;;;19.24;62.80;100719.69;10344481;28;20060;-70
2022/07/01 22:19:55;;;;;;;2.30;1.80;;;;;;;19.20;63.23;100726.44;10342844;28;20053;-69
2022/07/01 22:24:58;;;;;;;3.35;2.30;;;;;;;19.19;63.56;100725.59;10345522;28;20042;-70
2022/07/01 22:30:00;;;;;;;2.55;1.85;;;;;;;19.19;63.02;100722.06;10349053;28;20077;-68
2022/07/01 22:35:03;;;;;;;2.47;1.25;;;;;;;19.13;62.71;100730.84;10348735;28;20045;-70
2022/07/01 22:40:05;;;;;;;1.85;1.40;;;;;;;19.07;63.49;100727.78;10353233;28;20060;-69
2022/07/01 22:45:07;;;;;;;2.53;1.48;;;;;;;19.01;63.83;100728.44;10351189;28;20050;-69
2022/07/01 22:50:34;;;;;;;2.45;1.60;;;;;;;18.98;64.89;100739.56;10354829;28;20053;-70
2022/07/01 22:55:58;;;;;;;1.63;1.45;;;;;;;18.95;64.92;100742.63;10344312;28;20179;-69
2022/07/01 23:01:03;;;;;;;2.55;1.33;;;;;;;18.84;65.42;100743.75;10353024;28;20061;-70
2022/07/01 23:06:08;;;;;;;2.47;1.90;;;;;;;18.83;66.85;100752.00;10349883;28;20063;-69
2022/07/01 23:11:22;;;;;;;2.05;1.85;;;;;;;18.82;66.97;100761.09;10356070;28;20080;-70
2022/07/01 23:16:26;;;;;;;1.58;1.48;;;;;;;18.78;66.93;100762.44;10347329;28;20044;-70
2022/07/01 23:21:29;;;;;;;2.78;2.10;;;;;;;18.75;66.84;100757.38;10344970;28;20924;-70
2022/07/01 23:26:30;;;;;;;2.38;2.13;;;;;;;18.78;68.01;100759.72;10352459;28;20093;-72